Terminal Aerodrome Forecast
Issued by NWS

Home | Current Version | Previous Version | Text Only | Print | Product List | Glossary Off
Versions: 1 2 3 4 5 6 7 8 9 10 11 12 13

000
FTUS43 KGRB 251100
TAFATW
TAF
KATW 251125Z 2512/2612 35005KT P6SM BKN140
     FM251800 36005KT P6SM SCT035 BKN080
     FM252200 04008KT P6SM SCT035 BKN070
     FM260800 01008KT P6SM SCT030 BKN140=

USA.gov is the U.S. government's official web portal to all federal, state and local government web resources and services.